Time;durP1;ratioP1;P1;durP2;ratioP2;P2;SDS_P1;SDS_P2;PMS_P1;PMS_P2;Temp;Humidity;BMP_temperature;BMP_pressure;BME280_temperature;BME280_humidity;BME280_pressure;Samples;Min_cycle;Max_cycle;Signal;HPM_P1;HPM_P2
2021/05/08 00:01:13;;;;;;;669.33;74.35;;;;;;;3.84;100.00;101762.56;5225412;28;20200;-79
2021/05/08 00:03:44;;;;;;;917.67;103.78;;;;;;;3.77;100.00;101758.59;5225222;28;20165;-79
2021/05/08 00:06:14;;;;;;;93.72;45.65;;;;;;;4.19;100.00;101756.72;5225481;28;20477;-80
2021/05/08 00:08:45;;;;;;;51.83;25.75;;;;;;;5.69;100.00;101756.81;5225613;28;20101;-79
2021/05/08 00:11:15;;;;;;;97.95;39.10;;;;;;;6.06;100.00;101757.63;5224969;28;20120;-80
2021/05/08 00:13:46;;;;;;;48.70;26.40;;;;;;;6.80;100.00;101754.66;5225587;28;20451;-79
2021/05/08 00:16:16;;;;;;;56.92;27.63;;;;;;;7.48;100.00;101751.00;5225465;28;20028;-80
2021/05/08 00:18:47;;;;;;;26.48;15.32;;;;;;;7.13;100.00;101743.16;5225724;28;20104;-80
2021/05/08 00:21:17;;;;;;;20.35;10.77;;;;;;;6.27;100.00;101733.81;5218429;28;20017;-80
2021/05/08 00:23:48;;;;;;;18.50;9.43;;;;;;;5.50;100.00;101729.84;5225569;28;20071;-80
2021/05/08 00:26:18;;;;;;;22.50;13.52;;;;;;;5.13;100.00;101735.16;5225748;28;20074;-80
2021/05/08 00:28:49;;;;;;;21.48;11.68;;;;;;;5.18;100.00;101733.03;5225738;28;20025;-80
2021/05/08 00:31:19;;;;;;;21.02;10.45;;;;;;;4.81;100.00;101732.94;5225113;28;20036;-79
2021/05/08 00:33:50;;;;;;;64.70;26.02;;;;;;;4.68;100.00;101726.78;5225461;28;20074;-80
2021/05/08 00:36:21;;;;;;;97.20;27.17;;;;;;;4.70;100.00;101724.88;5225377;28;20402;-79
2021/05/08 00:38:51;;;;;;;767.00;171.93;;;;;;;4.75;100.00;101721.91;5225795;28;20025;-80
2021/05/08 00:41:21;;;;;;;26.25;13.60;;;;;;;4.50;100.00;101725.41;5225066;28;20048;-80
2021/05/08 00:43:54;;;;;;;22.33;11.25;;;;;;;4.20;100.00;101726.53;5225102;28;20025;-79
2021/05/08 00:46:26;;;;;;;24.98;10.02;;;;;;;4.07;100.00;101731.00;5224826;28;20017;-80
2021/05/08 00:48:58;;;;;;;23.50;11.90;;;;;;;3.85;100.00;101727.09;5225020;28;20512;-80
2021/05/08 00:51:29;;;;;;;29.20;14.60;;;;;;;3.87;100.00;101717.22;5224637;28;20021;-79
2021/05/08 00:53:59;;;;;;;26.77;12.00;;;;;;;3.87;100.00;101719.03;5206813;28;20418;-80
2021/05/08 00:56:30;;;;;;;25.15;11.85;;;;;;;3.76;100.00;101718.88;5224952;28;20398;-79
2021/05/08 00:59:01;;;;;;;22.08;12.30;;;;;;;3.68;100.00;101711.44;5224669;28;20025;-79
2021/05/08 01:01:31;;;;;;;28.17;13.75;;;;;;;3.54;100.00;101701.72;5224391;28;20398;-80
2021/05/08 01:04:02;;;;;;;26.08;13.02;;;;;;;3.50;100.00;101704.66;5225071;28;20067;-79
2021/05/08 01:06:34;;;;;;;28.58;15.57;;;;;;;3.45;100.00;101710.25;5224954;28;20021;-79
2021/05/08 01:09:06;;;;;;;23.77;13.27;;;;;;;3.41;100.00;101705.25;5224490;28;20025;-80
2021/05/08 01:11:37;;;;;;;233.23;36.00;;;;;;;3.36;100.00;101700.25;5224924;28;20021;-79
2021/05/08 01:14:07;;;;;;;26.42;12.68;;;;;;;3.29;100.00;101699.78;5224330;28;20493;-80
2021/05/08 01:16:38;;;;;;;1999.90;732.55;;;;;;;3.37;100.00;101697.50;5224693;28;20060;-79
2021/05/08 01:19:12;;;;;;;76.28;29.70;;;;;;;4.39;100.00;101700.41;5224758;28;20025;-79
2021/05/08 01:21:42;;;;;;;56.63;28.52;;;;;;;5.45;100.00;101690.25;5224662;28;20147;-80
2021/05/08 01:24:13;;;;;;;80.32;34.13;;;;;;;5.74;100.00;101685.44;5224456;28;20475;-79
2021/05/08 01:26:43;;;;;;;61.80;29.95;;;;;;;6.56;100.00;101686.28;5225328;28;20021;-80
2021/05/08 01:29:14;;;;;;;90.88;39.47;;;;;;;7.47;100.00;101694.06;5227741;28;20108;-80
2021/05/08 01:31:44;;;;;;;35.95;17.83;;;;;;;6.37;100.00;101689.50;5229095;28;20020;-80
2021/05/08 01:34:15;;;;;;;19.55;10.57;;;;;;;5.63;100.00;101682.72;5229065;28;20025;-80
2021/05/08 01:36:46;;;;;;;83.90;38.33;;;;;;;5.79;100.00;101680.63;5229130;28;20402;-80
2021/05/08 01:39:17;;;;;;;24.63;13.38;;;;;;;5.49;100.00;101670.44;5229085;28;20021;-80
2021/05/08 01:41:51;;;;;;;891.90;132.90;;;;;;;4.89;100.00;101671.25;5229561;28;20056;-79
2021/05/08 01:44:26;;;;;;;1995.18;303.17;;;;;;;4.30;100.00;101668.31;5230036;28;20082;-79
2021/05/08 01:46:57;;;;;;;201.50;54.40;;;;;;;4.14;100.00;101668.53;5229482;28;20021;-80
2021/05/08 01:49:32;;;;;;;35.40;13.18;;;;;;;3.95;100.00;101662.75;5229153;28;20374;-80
2021/05/08 01:52:03;;;;;;;23.10;13.07;;;;;;;3.73;100.00;101661.56;5229308;28;20074;-80
2021/05/08 01:54:33;;;;;;;669.63;77.32;;;;;;;3.56;100.00;101660.00;5229083;28;20025;-80
2021/05/08 01:57:04;;;;;;;32.42;14.80;;;;;;;3.52;100.00;101652.38;5220605;28;20068;-79
2021/05/08 01:59:36;;;;;;;48.50;14.75;;;;;;;3.50;100.00;101657.75;5226559;28;20505;-79
2021/05/08 02:02:07;;;;;;;24.40;12.77;;;;;;;3.45;100.00;101646.59;5227144;28;20085;-79
2021/05/08 02:04:40;;;;;;;24.17;12.80;;;;;;;3.46;100.00;101644.78;5227175;28;20025;-79
2021/05/08 02:07:21;;;;;;;36.05;14.23;;;;;;;3.44;100.00;101636.09;5226987;28;20021;-79
2021/05/08 02:09:52;;;;;;;28.02;13.63;;;;;;;3.40;100.00;101637.25;5226846;28;20028;-79
2021/05/08 02:12:29;;;;;;;30.40;14.32;;;;;;;3.40;100.00;101634.59;5226800;28;20075;-79
2021/05/08 02:15:00;;;;;;;28.55;14.70;;;;;;;3.41;100.00;101629.19;5227014;28;20020;-79
2021/05/08 02:17:30;;;;;;;29.02;14.18;;;;;;;3.46;100.00;101618.25;5226965;28;20024;-79
2021/05/08 02:20:03;;;;;;;32.00;13.82;;;;;;;3.48;100.00;101616.38;5226363;28;20016;-80
2021/05/08 02:22:34;;;;;;;26.15;13.60;;;;;;;3.55;100.00;101612.34;5226270;28;20509;-79
2021/05/08 02:25:07;;;;;;;24.02;13.52;;;;;;;3.61;100.00;101610.16;5226766;28;20029;-79
2021/05/08 02:27:39;;;;;;;33.08;14.43;;;;;;;3.73;100.00;101608.47;5226542;28;20392;-79
2021/05/08 02:30:14;;;;;;;31.48;14.00;;;;;;;3.82;100.00;101601.69;5226222;28;20025;-79
2021/05/08 02:32:44;;;;;;;25.30;12.85;;;;;;;3.89;100.00;101602.97;5226809;28;20037;-79
2021/05/08 02:35:16;;;;;;;26.17;13.38;;;;;;;3.94;100.00;101590.22;5226364;28;20052;-79
2021/05/08 02:37:47;;;;;;;26.35;13.40;;;;;;;3.96;100.00;101582.16;5225990;28;20040;-79
2021/05/08 02:40:22;;;;;;;28.38;13.82;;;;;;;3.99;100.00;101577.50;5225926;28;20021;-79
2021/05/08 02:42:53;;;;;;;25.65;13.40;;;;;;;4.07;100.00;101580.47;5232055;28;20033;-80
2021/05/08 02:45:24;;;;;;;29.02;14.98;;;;;;;4.14;100.00;101580.88;5209124;28;20036;-80
2021/05/08 02:47:55;;;;;;;30.55;14.38;;;;;;;4.25;100.00;101582.78;5225953;28;20035;-79
2021/05/08 02:50:25;;;;;;;32.22;14.38;;;;;;;4.30;100.00;101570.88;5226462;28;20024;-80
2021/05/08 02:52:56;;;;;;;38.53;17.63;;;;;;;4.36;100.00;101575.75;5226673;28;20482;-80
2021/05/08 02:55:26;;;;;;;58.22;24.27;;;;;;;4.42;100.00;101571.84;5226975;28;20025;-80
2021/05/08 02:58:01;;;;;;;30.23;15.10;;;;;;;4.49;100.00;101567.78;5219236;28;20053;-79
2021/05/08 03:00:32;;;;;;;27.90;13.23;;;;;;;4.49;100.00;101567.78;5227002;28;20461;-80
2021/05/08 03:03:02;;;;;;;26.00;13.23;;;;;;;4.46;100.00;101564.47;5226751;28;20025;-80
2021/05/08 03:05:33;;;;;;;25.77;13.15;;;;;;;4.39;100.00;101551.63;5227026;28;20024;-80
2021/05/08 03:08:04;;;;;;;27.77;12.77;;;;;;;4.42;100.00;101561.22;5227305;28;20170;-80
2021/05/08 03:10:34;;;;;;;30.55;12.40;;;;;;;4.44;100.00;101551.31;5226809;28;20025;-80
2021/05/08 03:13:04;;;;;;;25.63;12.98;;;;;;;4.42;100.00;101555.91;5226954;28;20125;-80
2021/05/08 03:15:35;;;;;;;24.70;12.32;;;;;;;4.46;100.00;101553.84;5227513;28;20033;-79
2021/05/08 03:18:05;;;;;;;27.38;13.98;;;;;;;4.52;100.00;101553.41;5227456;28;20438;-80
2021/05/08 03:20:36;;;;;;;25.63;14.23;;;;;;;4.62;100.00;101554.47;5227555;28;20048;-80
2021/05/08 03:23:06;;;;;;;27.13;12.75;;;;;;;4.55;100.00;101547.88;5220866;28;20626;-80
2021/05/08 03:25:38;;;;;;;27.50;13.70;;;;;;;4.50;100.00;101542.91;5227842;28;20127;-80
2021/05/08 03:28:08;;;;;;;30.98;15.40;;;;;;;4.45;100.00;101546.84;5227070;28;20036;-80
2021/05/08 03:30:39;;;;;;;90.30;38.47;;;;;;;4.53;100.00;101547.16;5227205;28;20029;-79
2021/05/08 03:33:09;;;;;;;50.70;23.90;;;;;;;4.89;100.00;101541.81;5227256;28;20021;-80
2021/05/08 03:35:40;;;;;;;180.52;84.78;;;;;;;5.17;100.00;101535.31;5209796;28;20434;-79
2021/05/08 03:38:10;;;;;;;65.78;27.67;;;;;;;5.28;100.00;101523.03;5227642;28;20053;-80
2021/05/08 03:40:41;;;;;;;37.10;17.27;;;;;;;5.07;100.00;101534.31;5227470;28;20108;-80
2021/05/08 03:43:11;;;;;;;30.52;13.40;;;;;;;4.86;100.00;101522.56;5226376;28;20020;-80
2021/05/08 03:45:42;;;;;;;24.08;12.60;;;;;;;4.73;100.00;101530.63;5226843;28;20079;-80
2021/05/08 03:48:12;;;;;;;26.67;13.15;;;;;;;4.63;100.00;101522.47;5226111;28;20029;-80
2021/05/08 03:50:44;;;;;;;39.63;19.50;;;;;;;4.65;100.00;101519.69;5225523;28;20048;-80
2021/05/08 03:53:16;;;;;;;35.55;17.42;;;;;;;4.82;100.00;101519.31;5226158;28;20021;-80
2021/05/08 03:55:47;;;;;;;84.38;36.13;;;;;;;4.89;100.00;101514.38;5225819;28;20099;-79
2021/05/08 03:58:22;;;;;;;34.58;17.75;;;;;;;4.92;100.00;101516.84;5207829;28;20052;-79
2021/05/08 04:00:54;;;;;;;26.95;13.48;;;;;;;4.89;100.00;101517.03;5225327;28;20025;-80
2021/05/08 04:03:26;;;;;;;181.65;57.83;;;;;;;5.03;100.00;101510.72;5225785;28;20057;-79
2021/05/08 04:05:56;;;;;;;79.20;33.95;;;;;;;5.31;100.00;101512.97;5225735;28;20025;-80
2021/05/08 04:08:26;;;;;;;94.22;43.70;;;;;;;5.37;100.00;101515.19;5225649;28;20031;-79
2021/05/08 04:10:57;;;;;;;72.25;29.67;;;;;;;5.35;100.00;101506.47;5225187;28;20057;-79
2021/05/08 04:13:28;;;;;;;56.60;25.92;;;;;;;5.28;100.00;101507.91;5225190;28;20033;-79
2021/05/08 04:15:58;;;;;;;33.00;17.58;;;;;;;5.36;100.00;101507.31;5225624;28;20259;-80
2021/05/08 04:18:29;;;;;;;24.10;13.27;;;;;;;5.11;100.00;101501.19;5226264;28;20025;-80
2021/05/08 04:20:59;;;;;;;23.27;12.55;;;;;;;5.00;100.00;101501.13;5218700;28;20017;-80
2021/05/08 04:23:29;;;;;;;22.08;12.40;;;;;;;4.95;100.00;101505.94;5225893;28;20096;-80
2021/05/08 04:26:00;;;;;;;62.33;27.05;;;;;;;5.03;100.00;101494.75;5225614;28;20109;-79
2021/05/08 04:28:30;;;;;;;38.22;17.48;;;;;;;5.26;100.00;101503.66;5225885;28;20049;-80
2021/05/08 04:31:01;;;;;;;24.45;13.00;;;;;;;5.48;100.00;101494.91;5225013;28;20048;-79
2021/05/08 04:33:31;;;;;;;71.50;28.77;;;;;;;5.57;100.00;101494.16;5224953;28;20052;-80
2021/05/08 04:36:02;;;;;;;36.25;16.38;;;;;;;5.87;100.00;101490.94;5226370;28;20830;-80
2021/05/08 04:38:33;;;;;;;21.45;13.27;;;;;;;5.87;100.00;101507.81;5226652;28;20405;-80
2021/05/08 04:41:03;;;;;;;20.90;10.73;;;;;;;6.12;100.00;101496.06;5225132;28;20018;-79
2021/05/08 04:43:34;;;;;;;17.63;9.50;;;;;;;6.13;100.00;101496.94;5224117;28;20044;-79
2021/05/08 04:46:04;;;;;;;17.33;9.85;;;;;;;6.00;100.00;101489.06;5206911;28;20048;-80
2021/05/08 04:48:35;;;;;;;22.05;10.20;;;;;;;5.95;100.00;101496.56;5224677;28;20037;-79
2021/05/08 04:51:05;;;;;;;17.55;9.57;;;;;;;5.93;100.00;101493.19;5224163;28;20075;-80
2021/05/08 04:53:36;;;;;;;19.05;10.38;;;;;;;5.96;100.00;101493.78;5224892;28;20028;-80
2021/05/08 04:56:06;;;;;;;22.33;10.05;;;;;;;6.01;100.00;101495.22;5225722;28;20016;-80
2021/05/08 04:58:37;;;;;;;17.08;9.35;;;;;;;6.12;100.00;101492.56;5217739;28;20024;-80
2021/05/08 05:01:07;;;;;;;21.50;10.07;;;;;;;6.21;100.00;101499.81;5224180;28;20112;-80
2021/05/08 05:03:38;;;;;;;17.60;8.52;;;;;;;6.34;100.00;101489.06;5228268;28;20087;-80
2021/05/08 05:06:09;;;;;;;14.23;7.68;;;;;;;6.42;100.00;101492.78;5211623;28;20037;-79
2021/05/08 05:08:40;;;;;;;12.60;6.82;;;;;;;6.49;100.00;101498.47;5229071;28;20376;-80
2021/05/08 05:11:10;;;;;;;18.67;7.70;;;;;;;6.55;100.00;101505.97;5228271;28;20021;-80
2021/05/08 05:13:40;;;;;;;12.80;6.78;;;;;;;6.61;100.00;101501.94;5229793;28;20037;-81
2021/05/08 05:16:11;;;;;;;11.23;6.10;;;;;;;6.69;100.00;101497.69;5231748;28;20039;-80
2021/05/08 05:18:42;;;;;;;12.63;5.40;;;;;;;6.79;100.00;101495.13;5230471;28;20838;-79
2021/05/08 05:21:12;;;;;;;14.07;5.47;;;;;;;6.88;100.00;101490.88;5203489;28;20462;-80
2021/05/08 05:23:42;;;;;;;15.80;5.15;;;;;;;6.96;100.00;101496.41;5227855;28;20040;-79
2021/05/08 05:26:13;;;;;;;11.55;4.63;;;;;;;7.07;100.00;101493.69;5228366;28;20033;-79
2021/05/08 05:28:43;;;;;;;11.50;5.13;;;;;;;7.09;100.00;101499.75;5227599;28;20029;-79
2021/05/08 05:31:17;;;;;;;11.38;5.28;;;;;;;7.16;100.00;101500.91;5227428;28;20036;-78
2021/05/08 05:33:47;;;;;;;10.23;5.13;;;;;;;7.20;100.00;101499.69;5214252;28;20094;-79
2021/05/08 05:36:18;;;;;;;9.43;4.72;;;;;;;7.30;100.00;101507.78;5227613;28;20103;-78
2021/05/08 05:38:48;;;;;;;11.68;4.03;;;;;;;7.31;100.00;101509.47;5227559;28;20052;-79
2021/05/08 05:41:19;;;;;;;10.00;4.80;;;;;;;7.39;100.00;101507.00;5227246;28;20052;-80
2021/05/08 05:43:49;;;;;;;11.55;4.47;;;;;;;7.48;100.00;101497.34;5227905;28;20028;-79
2021/05/08 05:46:20;;;;;;;13.75;5.43;;;;;;;7.58;100.00;101500.97;5228086;28;20029;-80
2021/05/08 05:48:50;;;;;;;11.50;4.50;;;;;;;7.67;100.00;101508.16;5228184;28;20033;-80
2021/05/08 05:51:21;;;;;;;9.05;4.43;;;;;;;7.82;100.00;101502.47;5227645;28;20029;-80
2021/05/08 05:53:56;;;;;;;9.88;4.80;;;;;;;8.02;100.00;101506.94;5227198;28;20021;-80
2021/05/08 05:56:27;;;;;;;9.40;4.18;;;;;;;8.18;100.00;101493.09;5227535;28;20100;-80
2021/05/08 05:58:58;;;;;;;8.32;4.60;;;;;;;8.37;100.00;101500.34;5227040;28;20025;-80
2021/05/08 06:01:28;;;;;;;12.07;5.68;;;;;;;8.48;100.00;101498.44;5226891;28;20021;-80
2021/05/08 06:03:59;;;;;;;11.68;5.10;;;;;;;8.72;100.00;101497.22;5227075;28;20036;-79
2021/05/08 06:06:30;;;;;;;16.00;5.45;;;;;;;8.84;100.00;101501.47;5227149;28;20386;-80
2021/05/08 06:09:01;;;;;;;8.95;4.57;;;;;;;9.00;100.00;101499.09;5226741;28;20028;-80
2021/05/08 06:11:31;;;;;;;10.68;4.47;;;;;;;9.08;100.00;101493.00;5227374;28;20036;-79
2021/05/08 06:14:02;;;;;;;10.35;3.90;;;;;;;9.06;100.00;101485.13;5225723;28;20036;-80
2021/05/08 06:16:32;;;;;;;8.23;4.07;;;;;;;9.06;100.00;101492.31;5227355;28;20035;-79
2021/05/08 06:19:03;;;;;;;8.77;5.20;;;;;;;8.87;100.00;101490.47;5226458;28;20386;-80
2021/05/08 06:21:33;;;;;;;7.80;3.75;;;;;;;8.85;100.00;101494.28;5209167;28;20021;-79
2021/05/08 06:24:04;;;;;;;7.65;3.83;;;;;;;8.74;100.00;101489.91;5209633;28;20482;-80
2021/05/08 06:26:36;;;;;;;9.35;3.92;;;;;;;8.70;100.00;101492.00;5226598;28;20732;-79
2021/05/08 06:29:07;;;;;;;13.23;3.63;;;;;;;8.70;100.00;101473.28;5226171;28;20028;-79
2021/05/08 06:31:37;;;;;;;4.85;3.13;;;;;;;8.69;100.00;101482.28;5208777;28;20475;-79
2021/05/08 06:34:08;;;;;;;9.90;4.00;;;;;;;8.72;100.00;101484.69;5226419;28;20035;-80
2021/05/08 06:36:38;;;;;;;11.07;3.58;;;;;;;8.74;100.00;101484.56;5226585;28;20082;-79
2021/05/08 06:39:08;;;;;;;8.82;3.90;;;;;;;8.75;100.00;101479.06;5226548;28;20108;-80
2021/05/08 06:41:39;;;;;;;6.53;3.90;;;;;;;8.87;100.00;101468.22;5235734;28;20102;-80
2021/05/08 06:44:09;;;;;;;9.35;3.45;;;;;;;8.88;100.00;101468.06;5228804;28;20025;-81
2021/05/08 06:46:40;;;;;;;7.75;3.45;;;;;;;8.91;100.00;101469.63;5210196;28;20048;-79
2021/05/08 06:49:10;;;;;;;7.65;3.08;;;;;;;8.95;100.00;101455.84;5227030;28;20103;-79
2021/05/08 06:51:41;;;;;;;17.55;4.07;;;;;;;9.02;100.00;101462.31;5228458;28;20031;-81
2021/05/08 06:54:11;;;;;;;10.40;3.65;;;;;;;9.06;100.00;101460.19;5226202;28;20607;-79
2021/05/08 06:56:42;;;;;;;31.17;4.43;;;;;;;9.09;100.00;101451.91;5222359;28;20108;-78
2021/05/08 06:59:12;;;;;;;15.20;3.53;;;;;;;9.15;100.00;101464.72;5222558;28;21217;-80
2021/05/08 07:01:43;;;;;;;16.23;4.05;;;;;;;9.19;100.00;101450.06;5225827;28;20086;-78
2021/05/08 07:04:13;;;;;;;14.63;4.03;;;;;;;9.27;100.00;101446.66;5225712;28;20025;-78
2021/05/08 07:06:44;;;;;;;16.27;3.83;;;;;;;9.34;100.00;101439.75;5226202;28;20429;-79
2021/05/08 07:09:14;;;;;;;6.38;3.55;;;;;;;9.41;100.00;101430.13;5225406;28;20132;-78
2021/05/08 07:11:45;;;;;;;6.40;3.45;;;;;;;9.54;100.00;101429.84;5225782;28;20035;-78
2021/05/08 07:14:15;;;;;;;6.55;3.13;;;;;;;9.69;100.00;101438.22;5225195;28;20116;-79
2021/05/08 07:16:46;;;;;;;7.72;3.30;;;;;;;9.79;100.00;101436.38;5225790;28;20453;-78
2021/05/08 07:19:16;;;;;;;8.48;3.20;;;;;;;9.93;100.00;101427.84;5223326;28;20029;-78
2021/05/08 07:21:46;;;;;;;9.60;3.35;;;;;;;10.03;100.00;101419.75;5220653;28;20542;-79
2021/05/08 07:24:17;;;;;;;6.50;3.10;;;;;;;10.09;100.00;101425.38;5225375;28;20028;-78
2021/05/08 07:26:47;;;;;;;6.35;2.85;;;;;;;10.19;100.00;101419.97;5225362;28;20021;-78
2021/05/08 07:29:19;;;;;;;8.48;3.28;;;;;;;10.34;92.46;101423.88;5224938;28;20086;-79
2021/05/08 07:31:49;;;;;;;8.20;3.50;;;;;;;10.54;93.18;101421.03;5225181;28;20029;-79
2021/05/08 07:34:20;;;;;;;9.65;4.32;;;;;;;10.58;94.42;101417.06;5225356;28;20028;-78
2021/05/08 07:36:50;;;;;;;4.78;2.63;;;;;;;10.74;92.25;101408.31;5225348;28;20120;-78
2021/05/08 07:39:21;;;;;;;8.45;3.05;;;;;;;10.89;85.64;101418.38;5224904;28;20024;-79
2021/05/08 07:41:51;;;;;;;9.27;3.35;;;;;;;11.12;86.41;101413.34;5227521;28;20055;-80
2021/05/08 07:44:21;;;;;;;5.25;2.88;;;;;;;11.23;96.44;101406.88;5228451;28;20025;-80
2021/05/08 07:46:52;;;;;;;8.05;3.30;;;;;;;11.15;83.18;101406.84;5227547;28;20040;-80
2021/05/08 07:49:22;;;;;;;8.50;3.05;;;;;;;11.10;85.06;101409.16;5226349;28;20032;-80
2021/05/08 07:51:53;;;;;;;7.45;3.45;;;;;;;11.15;83.07;101406.84;5228136;28;20033;-80
2021/05/08 07:54:23;;;;;;;7.63;2.90;;;;;;;11.08;80.31;101406.59;5228159;28;20016;-80
2021/05/08 07:56:54;;;;;;;6.35;2.97;;;;;;;10.89;87.33;101404.97;5219822;28;20067;-78
2021/05/08 07:59:24;;;;;;;8.43;2.90;;;;;;;10.92;90.41;101402.94;5223196;28;20081;-78
2021/05/08 08:01:55;;;;;;;5.90;3.13;;;;;;;10.88;98.59;101403.25;5225122;28;20025;-79
2021/05/08 08:04:25;;;;;;;11.43;3.53;;;;;;;10.87;96.76;101417.66;5224562;28;20033;-79
2021/05/08 08:06:56;;;;;;;16.48;3.83;;;;;;;10.96;100.00;101415.06;5224760;28;20600;-79
2021/05/08 08:09:26;;;;;;;8.10;3.45;;;;;;;10.96;100.00;101409.69;5224811;28;20119;-79
2021/05/08 08:11:57;;;;;;;10.40;3.45;;;;;;;10.99;97.55;101412.91;5224678;28;20695;-79
2021/05/08 08:14:27;;;;;;;9.80;3.25;;;;;;;11.09;100.00;101404.75;5225655;28;20037;-79
2021/05/08 08:16:57;;;;;;;10.68;3.25;;;;;;;11.05;100.00;101406.94;5226905;28;20154;-83
2021/05/08 08:19:28;;;;;;;5.60;3.08;;;;;;;11.12;100.00;101396.41;5221651;28;20098;-79
2021/05/08 08:21:59;;;;;;;9.50;3.10;;;;;;;11.30;100.00;101394.53;5221802;28;20021;-79
2021/05/08 08:24:29;;;;;;;8.43;2.90;;;;;;;11.30;100.00;101375.72;5224662;28;20098;-79
2021/05/08 08:27:00;;;;;;;7.68;3.15;;;;;;;11.34;100.00;101385.13;5224376;28;20116;-78
2021/05/08 08:29:31;;;;;;;8.38;3.05;;;;;;;11.28;100.00;101383.06;5223763;28;20121;-78
2021/05/08 08:32:01;;;;;;;5.25;3.13;;;;;;;11.17;100.00;101380.66;5211778;28;20489;-78
2021/05/08 08:34:32;;;;;;;9.75;2.90;;;;;;;11.17;100.00;101377.13;5224158;28;20030;-77
2021/05/08 08:37:04;;;;;;;7.78;2.90;;;;;;;11.40;100.00;101373.78;5223638;28;20036;-78
2021/05/08 08:39:35;;;;;;;9.32;3.10;;;;;;;11.40;100.00;101367.56;5223844;28;20025;-78
2021/05/08 08:42:07;;;;;;;6.97;2.83;;;;;;;11.47;100.00;101357.00;5206836;28;20029;-79
2021/05/08 08:44:39;;;;;;;6.05;3.22;;;;;;;11.69;100.00;101372.56;5224100;28;20352;-78
2021/05/08 08:47:29;;;;;;;5.15;2.90;;;;;;;11.61;100.00;101365.31;5223958;28;20048;-78
2021/05/08 08:50:09;;;;;;;7.63;3.38;;;;;;;11.67;100.00;101366.50;5223673;28;20028;-79
2021/05/08 08:52:40;;;;;;;8.82;2.80;;;;;;;11.75;100.00;101361.19;5223911;28;20479;-79
2021/05/08 08:55:11;;;;;;;4.95;2.88;;;;;;;11.76;100.00;101353.97;5224227;28;20036;-79
2021/05/08 08:57:44;;;;;;;5.05;2.92;;;;;;;11.72;100.00;101347.22;5206256;28;20060;-79
2021/05/08 09:00:16;;;;;;;6.72;3.38;;;;;;;11.78;100.00;101349.25;5224434;28;20017;-80
2021/05/08 09:02:49;;;;;;;5.22;3.20;;;;;;;11.70;100.00;101358.13;5224697;28;20410;-80
2021/05/08 09:05:25;;;;;;;6.43;3.30;;;;;;;11.72;100.00;101345.38;5225280;28;20025;-80
2021/05/08 09:08:00;;;;;;;8.10;2.90;;;;;;;11.65;100.00;101353.25;5226823;28;20051;-80
2021/05/08 09:10:32;;;;;;;8.23;3.10;;;;;;;11.54;100.00;101344.59;5225898;28;20021;-80
2021/05/08 09:13:04;;;;;;;9.52;3.28;;;;;;;11.49;100.00;101341.56;5225160;28;20029;-80
2021/05/08 09:15:37;;;;;;;10.82;3.47;;;;;;;11.49;100.00;101342.41;5225632;28;20060;-80
2021/05/08 09:18:10;;;;;;;12.10;3.80;;;;;;;11.53;100.00;101341.06;5225863;28;20032;-80
2021/05/08 09:20:47;;;;;;;6.00;2.90;;;;;;;11.60;100.00;101331.38;5220847;28;20021;-81
2021/05/08 09:23:29;;;;;;;8.13;3.67;;;;;;;11.56;100.00;101319.28;5224078;28;20033;-80
2021/05/08 09:26:05;;;;;;;8.23;3.08;;;;;;;11.59;100.00;101318.94;5225521;28;20036;-80
2021/05/08 09:28:39;;;;;;;10.15;2.85;;;;;;;11.50;100.00;101308.34;5225622;28;20029;-80
2021/05/08 09:31:13;;;;;;;7.97;3.45;;;;;;;11.50;100.00;101313.72;5225566;28;20359;-81
2021/05/08 09:33:50;;;;;;;8.98;3.55;;;;;;;11.57;100.00;101309.38;5225401;28;20040;-81
2021/05/08 09:36:21;;;;;;;6.13;3.30;;;;;;;11.84;100.00;101311.00;5225555;28;20090;-80
2021/05/08 09:38:52;;;;;;;10.75;4.30;;;;;;;12.05;100.00;101302.47;5225991;28;20025;-81
2021/05/08 09:41:45;;;;;;;10.38;3.65;;;;;;;12.42;100.00;101299.34;5226089;28;20375;-81
2021/05/08 09:44:16;;;;;;;10.98;3.53;;;;;;;12.37;100.00;101291.78;5226981;28;20036;-80
2021/05/08 09:46:46;;;;;;;7.82;4.00;;;;;;;12.30;100.00;101288.09;5227141;28;20025;-81
2021/05/08 09:49:20;;;;;;;11.30;3.28;;;;;;;12.17;100.00;101280.50;5227529;28;20542;-81
2021/05/08 09:51:58;;;;;;;10.95;3.40;;;;;;;12.22;100.00;101280.00;5230058;28;20060;-81
2021/05/08 09:54:28;;;;;;;3.60;2.60;;;;;;;12.10;100.00;101276.81;5227100;28;20048;-80
2021/05/08 09:56:59;;;;;;;8.68;3.10;;;;;;;12.01;100.00;101261.66;5229076;28;20063;-80
2021/05/08 09:59:34;;;;;;;16.15;3.85;;;;;;;12.03;100.00;101266.84;5227653;28;20041;-78
2021/05/08 10:02:05;;;;;;;;;;;;;;;12.16;100.00;101268.06;5227332;28;20021;-78
2021/05/08 10:04:44;;;;;;;6.57;3.00;;;;;;;12.06;100.00;101262.00;5227320;28;20583;-79
2021/05/08 10:07:17;;;;;;;6.20;3.30;;;;;;;12.20;100.00;101273.97;5226904;28;20028;-78
2021/05/08 10:09:50;;;;;;;8.63;3.15;;;;;;;12.12;100.00;101268.56;5226897;28;20025;-78
2021/05/08 10:12:22;;;;;;;8.32;3.30;;;;;;;12.14;100.00;101258.47;5227218;28;20025;-79
2021/05/08 10:14:55;;;;;;;4.60;2.45;;;;;;;12.01;100.00;101248.22;5227028;28;20033;-81
2021/05/08 10:17:27;;;;;;;5.35;3.30;;;;;;;11.93;100.00;101245.50;5226812;28;20021;-79
2021/05/08 10:20:06;;;;;;;4.68;2.90;;;;;;;12.02;100.00;101238.28;5226469;28;20071;-79
2021/05/08 10:22:54;;;;;;;5.53;2.97;;;;;;;12.00;100.00;101232.22;5221856;28;20478;-79
2021/05/08 10:25:25;;;;;;;7.07;2.85;;;;;;;11.92;100.00;101236.59;5226962;28;20025;-79
2021/05/08 10:27:56;;;;;;;5.65;3.00;;;;;;;11.85;100.00;101232.91;5226495;28;20685;-79
2021/05/08 10:30:33;;;;;;;6.80;3.40;;;;;;;12.01;100.00;101215.94;5226442;28;20033;-79
2021/05/08 10:33:13;;;;;;;5.47;2.83;;;;;;;12.23;100.00;101221.66;5220960;28;20031;-79
2021/05/08 10:35:45;;;;;;;8.10;3.63;;;;;;;12.22;100.00;101215.44;5228041;28;20032;-79
2021/05/08 10:38:27;;;;;;;5.88;3.08;;;;;;;12.13;100.00;101205.69;5236228;28;20067;-80
2021/05/08 10:41:02;;;;;;;6.07;3.15;;;;;;;12.11;100.00;101195.09;5227628;28;20013;-79
2021/05/08 10:43:43;;;;;;;3.67;2.67;;;;;;;12.05;100.00;101194.91;5226065;28;20075;-79
2021/05/08 10:46:16;;;;;;;7.10;3.10;;;;;;;12.11;100.00;101178.13;5208878;28;20294;-79
2021/05/08 10:49:06;;;;;;;4.63;2.88;;;;;;;12.19;100.00;101188.88;5223332;28;20025;-79
2021/05/08 10:51:53;;;;;;;7.68;3.58;;;;;;;12.35;100.00;101170.06;5210592;28;20542;-80
2021/05/08 10:54:36;;;;;;;7.85;2.97;;;;;;;12.48;100.00;101174.06;5217962;28;20032;-81
2021/05/08 10:57:18;;;;;;;8.18;3.63;;;;;;;12.57;100.00;101165.78;5222898;28;20090;-79
2021/05/08 11:00:00;;;;;;;4.63;3.13;;;;;;;12.80;100.00;101173.13;5221367;28;20029;-82
2021/05/08 11:02:41;;;;;;;10.43;3.63;;;;;;;12.66;100.00;101170.16;5228337;28;20037;-80
2021/05/08 11:05:26;;;;;;;7.93;3.33;;;;;;;12.44;100.00;101166.31;5214607;28;20029;-81
2021/05/08 11:07:56;;;;;;;5.28;2.80;;;;;;;12.35;100.00;101166.50;5227896;28;20086;-80
2021/05/08 11:10:31;;;;;;;9.00;3.70;;;;;;;12.31;100.00;101154.41;5225827;28;20108;-79
2021/05/08 11:13:16;;;;;;;7.22;3.55;;;;;;;12.21;100.00;101156.44;5222006;28;20437;-79
2021/05/08 11:15:54;;;;;;;5.93;3.20;;;;;;;12.13;100.00;101154.59;5204944;28;20032;-79
2021/05/08 11:18:37;;;;;;;10.50;3.03;;;;;;;12.12;100.00;101144.84;5204635;28;20029;-79
2021/05/08 11:21:08;;;;;;;6.43;3.10;;;;;;;12.02;100.00;101139.63;5213755;28;20462;-79
2021/05/08 11:23:43;;;;;;;9.25;3.67;;;;;;;12.10;100.00;101136.13;5222765;28;20040;-79
2021/05/08 11:26:28;;;;;;;;;;;;;;;11.99;100.00;101148.03;5224819;28;20052;-80
2021/05/08 11:29:05;;;;;;;7.38;4.00;;;;;;;12.00;100.00;101140.78;5225634;28;20605;-79
2021/05/08 11:31:41;;;;;;;6.25;2.92;;;;;;;12.00;100.00;101127.34;5207810;28;20025;-80
2021/05/08 11:34:17;;;;;;;6.10;3.05;;;;;;;12.10;100.00;101128.03;5226195;28;20021;-82
2021/05/08 11:36:52;;;;;;;7.13;3.00;;;;;;;12.32;100.00;101115.72;5208082;28;20033;-81